Detall de PIREP

Printer-friendly versionPDF version

[2016/10/14 09:31:00]
Flight IATA:CT2206
Pilot Number:012
Company ICAO:CAT
Aircraft Type:BE20/A
PAX:6
Departing Airport: LFMP
Destination Airport: LFSB
Alternate Airport:LFST
Online: VATSIM
Route:ORBIL G36 GAI UT186 PERIG UY156 ADABI UN858 TABOV UN491 MELKO UM606 MANAG UM139 ARPUS
Flight Level:F260
No Slew and time accel
No pause
Crash detect
Detect pilot in Cockpit between each 30 and 45 minutes
09:31 Zero fuel Weight: 9587 Lbs, Fuel Weight: 1854 Lbs
09:31 VATSIM:LFMP 140900Z AUTO 32005KT 9999 BKN070 17/13 Q1001 TEMPO VRB20G30KT SHRA OVC020TCU
09:31 VATSIM:LFSB 140900Z 03005KT 350V070 CAVOK 09/06 Q1007 NOSIG
09:41 Parking Brakes off
09:44 Take-off
09:44 Take off Weight: 11407 Lbs
09:44 Wind: 319º @ 005 Knots Heading: 327º
09:44 POS N42º 44´ 46´´ E002º 52´ 06´´
09:44 Gear Up: 123 Knots
09:44 Flaps:1 at 123 Knots
09:45 Flaps:0 at 133 Knots
09:59 Wind:067º@013 Knots Heading: 330º Ground Speed: 191 Knots Altitude 19655 ft
10:03 TOC
10:03 Fuel Weight: 1595 Lb
10:14 Wind:178º@009 Knots Heading: 331º Ground Speed: 265 Knots Altitude 25675 ft
10:29 Wind:197º@023 Knots Heading: 326º Ground Speed: 273 Knots Altitude 25688 ft
10:44 Wind:195º@025 Knots Heading: 000º Ground Speed: 283 Knots Altitude 25692 ft
10:59 Wind:193º@034 Knots Heading: 001º Ground Speed: 293 Knots Altitude 25695 ft
11:14 Wind:198º@035 Knots Heading: 032º Ground Speed: 293 Knots Altitude 25702 ft
11:29 Wind:194º@036 Knots Heading: 100º Ground Speed: 264 Knots Altitude 25695 ft
11:44 Wind:189º@034 Knots Heading: 123º Ground Speed: 249 Knots Altitude 25711 ft
11:56 TOD
11:56 Fuel Weight: 562 Lb
11:59 Wind:187º@043 Knots Heading: 125º Ground Speed: 282 Knots Altitude 22080 ft
12:13 Flaps:1 at 177 Knots
12:14 Wind:152º@003 Knots Heading: 146º Ground Speed: 180 Knots Altitude 3940 ft
12:14 Gear Down: 150 Knots
12:14 Flaps:2 at 132 Knots
12:18 TouchDown:Rate -149 ft/min Speed: 105 Knots
12:18 VATSIM:LFSB 141200Z 31004KT 270V350 9999 -RA FEW036 OVC100 10/07 Q1006 NOSIG
12:18 Land
12:18 Wind:124º@003 Knots
12:18 Heading: 165º
12:18 Flight Duration: 02:34
12:18 Landing Weight: 9962 Lbs
12:18 POS N47º 36´ 06´´ E007º 31´ 14´´
12:20 Parking brakes on
12:20 Block to Block Duration: 02:39
12:20 Final Fuel: 370 Lbls
12:20 Spent Fuel: 1483 Lbls
12:20 Flight Length: 649 NM
12:20 TOD Land Length: 88 NM

Exportar CSV

Powered by Drupal - Modified by Danger4k